sensor_id;sensor_type;location;lat;lon;timestamp;temperature;humidity
61398;DHT22;47267;48.130;-2.040;2023-03-01T00:01:31;18.80;40.90
61398;DHT22;47267;48.130;-2.040;2023-03-01T00:03:57;18.80;41.00
61398;DHT22;47267;48.130;-2.040;2023-03-01T00:06:24;18.80;40.90
61398;DHT22;47267;48.130;-2.040;2023-03-01T00:08:50;18.80;40.80
61398;DHT22;47267;48.130;-2.040;2023-03-01T00:11:20;18.80;40.90
61398;DHT22;47267;48.130;-2.040;2023-03-01T00:13:47;18.70;40.70
61398;DHT22;47267;48.130;-2.040;2023-03-01T00:16:17;18.70;40.70
61398;DHT22;47267;48.130;-2.040;2023-03-01T00:18:43;18.70;40.70
61398;DHT22;47267;48.130;-2.040;2023-03-01T00:21:08;18.70;40.60
61398;DHT22;47267;48.130;-2.040;2023-03-01T00:23:35;18.70;40.60
61398;DHT22;47267;48.130;-2.040;2023-03-01T00:26:01;18.70;40.70
61398;DHT22;47267;48.130;-2.040;2023-03-01T00:28:27;18.70;40.60
61398;DHT22;47267;48.130;-2.040;2023-03-01T00:30:52;18.70;40.70
61398;DHT22;47267;48.130;-2.040;2023-03-01T00:33:18;18.60;40.60
61398;DHT22;47267;48.130;-2.040;2023-03-01T00:35:44;18.60;40.50
61398;DHT22;47267;48.130;-2.040;2023-03-01T00:38:10;18.60;40.50
61398;DHT22;47267;48.130;-2.040;2023-03-01T00:40:36;18.60;40.60
61398;DHT22;47267;48.130;-2.040;2023-03-01T00:43:03;18.60;40.40
61398;DHT22;47267;48.130;-2.040;2023-03-01T00:45:29;18.60;40.50
61398;DHT22;47267;48.130;-2.040;2023-03-01T00:47:56;18.60;40.50
61398;DHT22;47267;48.130;-2.040;2023-03-01T00:50:23;18.60;40.50
61398;DHT22;47267;48.130;-2.040;2023-03-01T00:52:55;18.60;40.60
61398;DHT22;47267;48.130;-2.040;2023-03-01T00:55:22;18.60;40.50
61398;DHT22;47267;48.130;-2.040;2023-03-01T00:57:48;18.50;40.40
61398;DHT22;47267;48.130;-2.040;2023-03-01T01:00:14;18.60;40.40
61398;DHT22;47267;48.130;-2.040;2023-03-01T01:02:40;18.50;40.40
61398;DHT22;47267;48.130;-2.040;2023-03-01T01:05:06;18.50;40.40
61398;DHT22;47267;48.130;-2.040;2023-03-01T01:07:32;18.50;40.30
61398;DHT22;47267;48.130;-2.040;2023-03-01T01:09:58;18.50;40.30
61398;DHT22;47267;48.130;-2.040;2023-03-01T01:12:24;18.50;40.30
61398;DHT22;47267;48.130;-2.040;2023-03-01T01:14:49;18.40;40.30
61398;DHT22;47267;48.130;-2.040;2023-03-01T01:17:15;18.50;40.30
61398;DHT22;47267;48.130;-2.040;2023-03-01T01:19:41;18.40;40.30
61398;DHT22;47267;48.130;-2.040;2023-03-01T01:22:07;18.50;40.30
61398;DHT22;47267;48.130;-2.040;2023-03-01T01:24:32;18.40;40.20
61398;DHT22;47267;48.130;-2.040;2023-03-01T01:26:58;18.40;40.30
61398;DHT22;47267;48.130;-2.040;2023-03-01T01:29:24;18.40;40.20
61398;DHT22;47267;48.130;-2.040;2023-03-01T01:31:49;18.40;40.20
61398;DHT22;47267;48.130;-2.040;2023-03-01T01:34:18;18.40;40.20
61398;DHT22;47267;48.130;-2.040;2023-03-01T01:36:44;18.30;40.10
61398;DHT22;47267;48.130;-2.040;2023-03-01T01:39:12;18.40;40.20
61398;DHT22;47267;48.130;-2.040;2023-03-01T01:41:40;18.30;40.10
61398;DHT22;47267;48.130;-2.040;2023-03-01T01:44:14;18.30;40.70
61398;DHT22;47267;48.130;-2.040;2023-03-01T01:51:51;18.30;40.10
61398;DHT22;47267;48.130;-2.040;2023-03-01T01:54:29;18.30;40.10
61398;DHT22;47267;48.130;-2.040;2023-03-01T01:57:00;18.30;40.10
61398;DHT22;47267;48.130;-2.040;2023-03-01T01:59:28;18.20;40.00
61398;DHT22;47267;48.130;-2.040;2023-03-01T02:01:57;18.30;40.10
61398;DHT22;47267;48.130;-2.040;2023-03-01T02:04:24;18.20;40.00
61398;DHT22;47267;48.130;-2.040;2023-03-01T02:07:05;18.20;40.00
61398;DHT22;47267;48.130;-2.040;2023-03-01T02:09:34;18.20;40.00
61398;DHT22;47267;48.130;-2.040;2023-03-01T02:12:01;18.20;40.00
61398;DHT22;47267;48.130;-2.040;2023-03-01T02:14:27;18.20;40.10
61398;DHT22;47267;48.130;-2.040;2023-03-01T02:16:53;18.20;40.10
61398;DHT22;47267;48.130;-2.040;2023-03-01T02:22:31;18.20;40.00
61398;DHT22;47267;48.130;-2.040;2023-03-01T02:28:08;18.10;40.10
61398;DHT22;47267;48.130;-2.040;2023-03-01T02:30:36;18.20;40.00
61398;DHT22;47267;48.130;-2.040;2023-03-01T02:33:03;18.10;40.10
61398;DHT22;47267;48.130;-2.040;2023-03-01T02:35:32;18.10;39.90
61398;DHT22;47267;48.130;-2.040;2023-03-01T02:38:00;18.10;39.90
61398;DHT22;47267;48.130;-2.040;2023-03-01T02:40:29;18.10;39.90
61398;DHT22;47267;48.130;-2.040;2023-03-01T02:42:57;18.10;39.90
61398;DHT22;47267;48.130;-2.040;2023-03-01T02:45:24;18.10;39.80
61398;DHT22;47267;48.130;-2.040;2023-03-01T02:47:50;18.10;39.90
61398;DHT22;47267;48.130;-2.040;2023-03-01T02:53:13;18.10;39.80
61398;DHT22;47267;48.130;-2.040;2023-03-01T02:55:42;18.00;39.80
61398;DHT22;47267;48.130;-2.040;2023-03-01T02:58:08;18.00;39.80
61398;DHT22;47267;48.130;-2.040;2023-03-01T03:00:37;18.00;39.80
61398;DHT22;47267;48.130;-2.040;2023-03-01T03:03:20;18.00;39.80
61398;DHT22;47267;48.130;-2.040;2023-03-01T03:05:47;18.00;39.70
61398;DHT22;47267;48.130;-2.040;2023-03-01T03:08:14;18.00;39.70
61398;DHT22;47267;48.130;-2.040;2023-03-01T03:10:42;18.00;39.70
61398;DHT22;47267;48.130;-2.040;2023-03-01T03:13:13;18.00;39.70
61398;DHT22;47267;48.130;-2.040;2023-03-01T03:15:40;18.00;39.70
61398;DHT22;47267;48.130;-2.040;2023-03-01T03:18:09;18.00;40.30
61398;DHT22;47267;48.130;-2.040;2023-03-01T03:20:36;18.00;39.70
61398;DHT22;47267;48.130;-2.040;2023-03-01T03:23:02;17.90;39.60
61398;DHT22;47267;48.130;-2.040;2023-03-01T03:25:29;17.90;39.60
61398;DHT22;47267;48.130;-2.040;2023-03-01T03:27:55;17.90;39.60
61398;DHT22;47267;48.130;-2.040;2023-03-01T03:30:30;17.90;39.60
61398;DHT22;47267;48.130;-2.040;2023-03-01T03:32:57;17.90;39.60
61398;DHT22;47267;48.130;-2.040;2023-03-01T03:35:26;17.90;39.60
61398;DHT22;47267;48.130;-2.040;2023-03-01T03:37:53;17.90;39.60
61398;DHT22;47267;48.130;-2.040;2023-03-01T03:40:35;17.90;39.60
61398;DHT22;47267;48.130;-2.040;2023-03-01T03:43:06;17.90;39.60
61398;DHT22;47267;48.130;-2.040;2023-03-01T03:45:33;17.90;39.50
61398;DHT22;47267;48.130;-2.040;2023-03-01T03:47:59;17.80;39.50
61398;DHT22;47267;48.130;-2.040;2023-03-01T03:50:26;17.80;40.10
61398;DHT22;47267;48.130;-2.040;2023-03-01T03:52:51;17.80;40.20
61398;DHT22;47267;48.130;-2.040;2023-03-01T03:55:17;17.80;39.50
61398;DHT22;47267;48.130;-2.040;2023-03-01T03:57:45;17.80;39.60
61398;DHT22;47267;48.130;-2.040;2023-03-01T04:00:18;17.80;39.50
61398;DHT22;47267;48.130;-2.040;2023-03-01T04:02:45;17.80;39.60
61398;DHT22;47267;48.130;-2.040;2023-03-01T04:05:13;17.70;39.60
61398;DHT22;47267;48.130;-2.040;2023-03-01T04:07:41;17.70;39.60
61398;DHT22;47267;48.130;-2.040;2023-03-01T04:10:10;17.70;39.60
61398;DHT22;47267;48.130;-2.040;2023-03-01T04:12:36;17.70;39.50
61398;DHT22;47267;48.130;-2.040;2023-03-01T04:15:04;17.70;39.50
61398;DHT22;47267;48.130;-2.040;2023-03-01T04:17:42;17.70;39.60
61398;DHT22;47267;48.130;-2.040;2023-03-01T04:20:16;17.70;39.60
61398;DHT22;47267;48.130;-2.040;2023-03-01T04:22:43;17.70;39.60
61398;DHT22;47267;48.130;-2.040;2023-03-01T04:25:12;17.70;39.60
61398;DHT22;47267;48.130;-2.040;2023-03-01T04:27:39;17.70;39.60
61398;DHT22;47267;48.130;-2.040;2023-03-01T04:30:06;17.70;39.60
61398;DHT22;47267;48.130;-2.040;2023-03-01T04:32:32;17.70;39.60
61398;DHT22;47267;48.130;-2.040;2023-03-01T04:34:59;17.70;39.60
61398;DHT22;47267;48.130;-2.040;2023-03-01T04:37:25;17.70;39.60
61398;DHT22;47267;48.130;-2.040;2023-03-01T04:39:51;17.60;39.50
61398;DHT22;47267;48.130;-2.040;2023-03-01T04:42:17;17.60;39.60
61398;DHT22;47267;48.130;-2.040;2023-03-01T04:44:44;17.70;39.60
61398;DHT22;47267;48.130;-2.040;2023-03-01T04:47:10;17.60;39.50
61398;DHT22;47267;48.130;-2.040;2023-03-01T04:49:36;17.60;39.90
61398;DHT22;47267;48.130;-2.040;2023-03-01T04:52:02;17.60;39.50
61398;DHT22;47267;48.130;-2.040;2023-03-01T04:54:34;17.60;39.50
61398;DHT22;47267;48.130;-2.040;2023-03-01T04:57:01;17.60;39.50
61398;DHT22;47267;48.130;-2.040;2023-03-01T04:59:26;17.60;39.50
61398;DHT22;47267;48.130;-2.040;2023-03-01T05:01:54;17.60;39.50
61398;DHT22;47267;48.130;-2.040;2023-03-01T05:04:23;17.60;39.50
61398;DHT22;47267;48.130;-2.040;2023-03-01T05:06:49;17.60;39.50
61398;DHT22;47267;48.130;-2.040;2023-03-01T05:09:15;17.60;39.50
61398;DHT22;47267;48.130;-2.040;2023-03-01T05:11:41;17.60;39.50
61398;DHT22;47267;48.130;-2.040;2023-03-01T05:14:08;17.60;39.50
61398;DHT22;47267;48.130;-2.040;2023-03-01T05:16:34;17.60;39.50
61398;DHT22;47267;48.130;-2.040;2023-03-01T05:19:02;17.60;39.50
61398;DHT22;47267;48.130;-2.040;2023-03-01T05:21:37;17.60;39.50
61398;DHT22;47267;48.130;-2.040;2023-03-01T05:24:23;17.60;39.50
61398;DHT22;47267;48.130;-2.040;2023-03-01T05:26:49;17.50;39.40
61398;DHT22;47267;48.130;-2.040;2023-03-01T05:29:18;17.50;39.50
61398;DHT22;47267;48.130;-2.040;2023-03-01T05:31:44;17.50;39.40
61398;DHT22;47267;48.130;-2.040;2023-03-01T05:34:10;17.60;39.50
61398;DHT22;47267;48.130;-2.040;2023-03-01T05:36:38;17.50;39.40
61398;DHT22;47267;48.130;-2.040;2023-03-01T05:39:03;17.50;39.40
61398;DHT22;47267;48.130;-2.040;2023-03-01T05:41:29;17.50;39.40
61398;DHT22;47267;48.130;-2.040;2023-03-01T05:43:55;17.50;39.40
61398;DHT22;47267;48.130;-2.040;2023-03-01T05:46:21;17.50;39.40
61398;DHT22;47267;48.130;-2.040;2023-03-01T05:48:49;17.50;39.40
61398;DHT22;47267;48.130;-2.040;2023-03-01T05:51:15;17.50;39.40
61398;DHT22;47267;48.130;-2.040;2023-03-01T05:53:41;17.50;39.40
61398;DHT22;47267;48.130;-2.040;2023-03-01T05:56:07;17.50;39.40
61398;DHT22;47267;48.130;-2.040;2023-03-01T05:58:33;17.50;39.40
61398;DHT22;47267;48.130;-2.040;2023-03-01T06:00:58;17.50;39.40
61398;DHT22;47267;48.130;-2.040;2023-03-01T06:03:24;17.50;39.30
61398;DHT22;47267;48.130;-2.040;2023-03-01T06:05:50;17.50;39.40
61398;DHT22;47267;48.130;-2.040;2023-03-01T06:08:20;17.50;39.30
61398;DHT22;47267;48.130;-2.040;2023-03-01T06:10:47;17.50;39.30
61398;DHT22;47267;48.130;-2.040;2023-03-01T06:13:13;17.50;39.40
61398;DHT22;47267;48.130;-2.040;2023-03-01T06:15:38;17.50;39.40
61398;DHT22;47267;48.130;-2.040;2023-03-01T06:18:04;17.50;39.40
61398;DHT22;47267;48.130;-2.040;2023-03-01T06:20:30;17.40;39.40
61398;DHT22;47267;48.130;-2.040;2023-03-01T06:22:56;17.40;39.40
61398;DHT22;47267;48.130;-2.040;2023-03-01T06:25:24;17.50;39.50
61398;DHT22;47267;48.130;-2.040;2023-03-01T06:27:50;17.40;39.40
61398;DHT22;47267;48.130;-2.040;2023-03-01T06:30:18;17.40;39.50
61398;DHT22;47267;48.130;-2.040;2023-03-01T06:32:44;17.40;39.50
61398;DHT22;47267;48.130;-2.040;2023-03-01T06:35:13;17.40;39.60
61398;DHT22;47267;48.130;-2.040;2023-03-01T06:37:40;17.40;39.60
61398;DHT22;47267;48.130;-2.040;2023-03-01T06:40:07;17.40;39.70
61398;DHT22;47267;48.130;-2.040;2023-03-01T06:42:40;17.40;39.70
61398;DHT22;47267;48.130;-2.040;2023-03-01T06:45:08;17.40;39.80
61398;DHT22;47267;48.130;-2.040;2023-03-01T06:47:34;17.40;39.90
61398;DHT22;47267;48.130;-2.040;2023-03-01T06:50:00;17.40;40.00
61398;DHT22;47267;48.130;-2.040;2023-03-01T06:52:26;17.40;40.00
61398;DHT22;47267;48.130;-2.040;2023-03-01T06:54:52;17.40;40.10
61398;DHT22;47267;48.130;-2.040;2023-03-01T06:57:17;17.40;40.20
61398;DHT22;47267;48.130;-2.040;2023-03-01T06:59:43;17.40;40.30
61398;DHT22;47267;48.130;-2.040;2023-03-01T07:02:13;17.40;40.40
61398;DHT22;47267;48.130;-2.040;2023-03-01T07:04:39;17.40;40.50
61398;DHT22;47267;48.130;-2.040;2023-03-01T07:07:05;17.40;40.60
61398;DHT22;47267;48.130;-2.040;2023-03-01T07:09:31;17.50;40.70
61398;DHT22;47267;48.130;-2.040;2023-03-01T07:11:57;17.40;40.70
61398;DHT22;47267;48.130;-2.040;2023-03-01T07:14:22;17.40;40.80
61398;DHT22;47267;48.130;-2.040;2023-03-01T07:16:53;17.40;40.80
61398;DHT22;47267;48.130;-2.040;2023-03-01T07:19:19;17.50;40.90
61398;DHT22;47267;48.130;-2.040;2023-03-01T07:21:45;17.40;40.80
61398;DHT22;47267;48.130;-2.040;2023-03-01T07:24:11;17.40;40.80
61398;DHT22;47267;48.130;-2.040;2023-03-01T07:26:37;17.40;40.90
61398;DHT22;47267;48.130;-2.040;2023-03-01T07:29:04;17.50;40.90
61398;DHT22;47267;48.130;-2.040;2023-03-01T07:31:31;17.40;41.00
61398;DHT22;47267;48.130;-2.040;2023-03-01T07:33:57;17.40;40.90
61398;DHT22;47267;48.130;-2.040;2023-03-01T07:36:23;17.40;41.00
61398;DHT22;47267;48.130;-2.040;2023-03-01T07:38:49;17.40;40.90
61398;DHT22;47267;48.130;-2.040;2023-03-01T07:41:15;17.40;40.90
61398;DHT22;47267;48.130;-2.040;2023-03-01T07:43:40;17.50;41.00
61398;DHT22;47267;48.130;-2.040;2023-03-01T07:46:06;17.40;41.00
61398;DHT22;47267;48.130;-2.040;2023-03-01T07:48:33;17.50;41.10
61398;DHT22;47267;48.130;-2.040;2023-03-01T07:51:03;17.40;41.00
61398;DHT22;47267;48.130;-2.040;2023-03-01T07:53:29;17.40;41.00
61398;DHT22;47267;48.130;-2.040;2023-03-01T07:56:08;17.40;40.90
61398;DHT22;47267;48.130;-2.040;2023-03-01T07:58:35;17.40;41.60
61398;DHT22;47267;48.130;-2.040;2023-03-01T08:01:05;17.40;40.90
61398;DHT22;47267;48.130;-2.040;2023-03-01T08:03:31;17.40;40.90
61398;DHT22;47267;48.130;-2.040;2023-03-01T08:06:00;17.40;40.90
61398;DHT22;47267;48.130;-2.040;2023-03-01T08:08:26;17.40;40.90
61398;DHT22;47267;48.130;-2.040;2023-03-01T08:10:52;17.40;40.90
61398;DHT22;47267;48.130;-2.040;2023-03-01T08:13:18;17.40;40.90
61398;DHT22;47267;48.130;-2.040;2023-03-01T08:15:51;17.40;40.90
61398;DHT22;47267;48.130;-2.040;2023-03-01T08:18:18;17.40;40.90
61398;DHT22;47267;48.130;-2.040;2023-03-01T08:20:44;17.40;40.90
61398;DHT22;47267;48.130;-2.040;2023-03-01T08:23:13;17.40;40.90
61398;DHT22;47267;48.130;-2.040;2023-03-01T08:25:38;17.40;40.90
61398;DHT22;47267;48.130;-2.040;2023-03-01T08:28:05;17.40;40.90
61398;DHT22;47267;48.130;-2.040;2023-03-01T08:30:31;17.40;40.90
61398;DHT22;47267;48.130;-2.040;2023-03-01T08:32:57;17.40;40.90
61398;DHT22;47267;48.130;-2.040;2023-03-01T08:35:23;17.40;40.90
61398;DHT22;47267;48.130;-2.040;2023-03-01T08:37:49;17.40;40.90
61398;DHT22;47267;48.130;-2.040;2023-03-01T08:40:14;17.40;40.90
61398;DHT22;47267;48.130;-2.040;2023-03-01T08:42:41;17.40;40.80
61398;DHT22;47267;48.130;-2.040;2023-03-01T08:45:09;17.40;40.80
61398;DHT22;47267;48.130;-2.040;2023-03-01T08:47:35;17.40;40.80
61398;DHT22;47267;48.130;-2.040;2023-03-01T08:50:01;17.40;40.80
61398;DHT22;47267;48.130;-2.040;2023-03-01T08:52:27;17.40;40.80
61398;DHT22;47267;48.130;-2.040;2023-03-01T08:54:53;17.40;40.80
61398;DHT22;47267;48.130;-2.040;2023-03-01T08:57:19;17.40;40.80
61398;DHT22;47267;48.130;-2.040;2023-03-01T08:59:44;17.40;40.70
61398;DHT22;47267;48.130;-2.040;2023-03-01T09:02:13;17.40;40.70
61398;DHT22;47267;48.130;-2.040;2023-03-01T09:04:40;17.40;40.70
61398;DHT22;47267;48.130;-2.040;2023-03-01T09:07:06;17.40;40.70
61398;DHT22;47267;48.130;-2.040;2023-03-01T09:09:32;17.40;40.70
61398;DHT22;47267;48.130;-2.040;2023-03-01T09:11:57;17.40;40.70
61398;DHT22;47267;48.130;-2.040;2023-03-01T09:14:23;17.30;40.70
61398;DHT22;47267;48.130;-2.040;2023-03-01T09:16:49;17.40;40.70
61398;DHT22;47267;48.130;-2.040;2023-03-01T09:19:14;17.40;40.70
61398;DHT22;47267;48.130;-2.040;2023-03-01T09:21:40;17.30;40.70
61398;DHT22;47267;48.130;-2.040;2023-03-01T09:24:14;17.40;40.70
61398;DHT22;47267;48.130;-2.040;2023-03-01T09:26:40;17.40;40.70
61398;DHT22;47267;48.130;-2.040;2023-03-01T09:29:05;17.40;40.70
61398;DHT22;47267;48.130;-2.040;2023-03-01T09:31:31;17.40;40.70
61398;DHT22;47267;48.130;-2.040;2023-03-01T09:33:56;17.40;40.70
61398;DHT22;47267;48.130;-2.040;2023-03-01T09:36:24;17.40;40.70
61398;DHT22;47267;48.130;-2.040;2023-03-01T09:38:50;17.40;40.70
61398;DHT22;47267;48.130;-2.040;2023-03-01T09:43:57;17.40;40.60
61398;DHT22;47267;48.130;-2.040;2023-03-01T09:46:25;17.40;40.70
61398;DHT22;47267;48.130;-2.040;2023-03-01T09:49:00;17.40;40.60
61398;DHT22;47267;48.130;-2.040;2023-03-01T09:51:31;17.40;40.60
61398;DHT22;47267;48.130;-2.040;2023-03-01T09:53:57;17.40;40.60
61398;DHT22;47267;48.130;-2.040;2023-03-01T09:56:33;17.40;40.60
61398;DHT22;47267;48.130;-2.040;2023-03-01T09:59:26;17.40;40.60
61398;DHT22;47267;48.130;-2.040;2023-03-01T10:04:52;17.40;40.60
61398;DHT22;47267;48.130;-2.040;2023-03-01T10:07:27;17.40;40.60
61398;DHT22;47267;48.130;-2.040;2023-03-01T10:09:55;17.40;40.60
61398;DHT22;47267;48.130;-2.040;2023-03-01T10:12:24;17.40;40.60
61398;DHT22;47267;48.130;-2.040;2023-03-01T10:14:54;17.40;40.60
61398;DHT22;47267;48.130;-2.040;2023-03-01T10:20:17;17.40;40.60
61398;DHT22;47267;48.130;-2.040;2023-03-01T10:22:43;17.40;40.60
61398;DHT22;47267;48.130;-2.040;2023-03-01T10:25:14;17.40;40.60
61398;DHT22;47267;48.130;-2.040;2023-03-01T10:27:51;17.40;40.50
61398;DHT22;47267;48.130;-2.040;2023-03-01T10:30:29;17.40;40.50
61398;DHT22;47267;48.130;-2.040;2023-03-01T10:32:58;17.40;40.60
61398;DHT22;47267;48.130;-2.040;2023-03-01T10:35:26;17.40;40.60
61398;DHT22;47267;48.130;-2.040;2023-03-01T10:38:10;17.50;40.60
61398;DHT22;47267;48.130;-2.040;2023-03-01T10:40:56;17.50;40.60
61398;DHT22;47267;48.130;-2.040;2023-03-01T10:43:26;17.50;40.60
61398;DHT22;47267;48.130;-2.040;2023-03-01T10:45:53;17.50;40.60
61398;DHT22;47267;48.130;-2.040;2023-03-01T10:48:26;17.50;40.60
61398;DHT22;47267;48.130;-2.040;2023-03-01T10:53:28;17.50;40.60
61398;DHT22;47267;48.130;-2.040;2023-03-01T10:56:07;17.50;40.60
61398;DHT22;47267;48.130;-2.040;2023-03-01T10:58:38;17.50;40.60
61398;DHT22;47267;48.130;-2.040;2023-03-01T11:03:36;17.50;40.60
61398;DHT22;47267;48.130;-2.040;2023-03-01T11:08:44;17.50;40.60
61398;DHT22;47267;48.130;-2.040;2023-03-01T11:11:30;17.60;40.60
61398;DHT22;47267;48.130;-2.040;2023-03-01T11:13:57;17.60;40.70
61398;DHT22;47267;48.130;-2.040;2023-03-01T11:16:36;17.60;40.60
61398;DHT22;47267;48.130;-2.040;2023-03-01T11:21:41;17.60;40.60
61398;DHT22;47267;48.130;-2.040;2023-03-01T11:24:13;17.60;40.60
61398;DHT22;47267;48.130;-2.040;2023-03-01T11:26:40;17.60;40.60
61398;DHT22;47267;48.130;-2.040;2023-03-01T11:29:14;17.60;40.60
61398;DHT22;47267;48.130;-2.040;2023-03-01T11:31:41;17.60;40.60
61398;DHT22;47267;48.130;-2.040;2023-03-01T11:34:19;17.60;40.60
61398;DHT22;47267;48.130;-2.040;2023-03-01T11:36:59;17.70;41.30
61398;DHT22;47267;48.130;-2.040;2023-03-01T11:39:51;17.70;40.70
61398;DHT22;47267;48.130;-2.040;2023-03-01T11:42:33;17.70;40.70
61398;DHT22;47267;48.130;-2.040;2023-03-01T11:45:09;17.70;40.70
61398;DHT22;47267;48.130;-2.040;2023-03-01T12:06:41;17.80;40.70
61398;DHT22;47267;48.130;-2.040;2023-03-01T12:12:27;17.80;40.70
61398;DHT22;47267;48.130;-2.040;2023-03-01T12:15:20;17.80;40.70
61398;DHT22;47267;48.130;-2.040;2023-03-01T12:29:34;17.90;40.70
61398;DHT22;47267;48.130;-2.040;2023-03-01T12:37:34;17.90;40.70
61398;DHT22;47267;48.130;-2.040;2023-03-01T12:51:03;18.00;40.70
61398;DHT22;47267;48.130;-2.040;2023-03-01T12:53:34;18.00;40.70
61398;DHT22;47267;48.130;-2.040;2023-03-01T12:56:10;18.00;40.70
61398;DHT22;47267;48.130;-2.040;2023-03-01T12:59:06;18.00;40.70
61398;DHT22;47267;48.130;-2.040;2023-03-01T13:01:54;18.00;40.70
61398;DHT22;47267;48.130;-2.040;2023-03-01T13:17:55;18.10;40.80
61398;DHT22;47267;48.130;-2.040;2023-03-01T13:31:02;18.20;40.80
61398;DHT22;47267;48.130;-2.040;2023-03-01T13:35:54;18.20;40.90
61398;DHT22;47267;48.130;-2.040;2023-03-01T13:38:48;18.20;41.00
61398;DHT22;47267;48.130;-2.040;2023-03-01T13:44:31;18.30;41.00
61398;DHT22;47267;48.130;-2.040;2023-03-01T13:47:14;18.30;41.00
61398;DHT22;47267;48.130;-2.040;2023-03-01T13:49:52;18.30;41.00
61398;DHT22;47267;48.130;-2.040;2023-03-01T13:55:51;18.30;41.00
61398;DHT22;47267;48.130;-2.040;2023-03-01T13:57:55;18.40;41.10
61398;DHT22;47267;48.130;-2.040;2023-03-01T14:00:39;18.40;41.10
61398;DHT22;47267;48.130;-2.040;2023-03-01T14:03:12;18.40;41.10
61398;DHT22;47267;48.130;-2.040;2023-03-01T14:05:41;18.40;41.10
61398;DHT22;47267;48.130;-2.040;2023-03-01T14:08:25;18.40;41.10
61398;DHT22;47267;48.130;-2.040;2023-03-01T14:22:33;18.60;41.30
61398;DHT22;47267;48.130;-2.040;2023-03-01T14:25:01;18.60;41.30
61398;DHT22;47267;48.130;-2.040;2023-03-01T14:27:36;18.60;41.30
61398;DHT22;47267;48.130;-2.040;2023-03-01T14:30:15;18.60;41.30
61398;DHT22;47267;48.130;-2.040;2023-03-01T14:32:56;18.70;41.30
61398;DHT22;47267;48.130;-2.040;2023-03-01T14:35:27;18.70;41.30
61398;DHT22;47267;48.130;-2.040;2023-03-01T14:37:54;18.70;41.30
61398;DHT22;47267;48.130;-2.040;2023-03-01T14:40:34;18.70;41.30
61398;DHT22;47267;48.130;-2.040;2023-03-01T14:43:08;18.80;41.30
61398;DHT22;47267;48.130;-2.040;2023-03-01T14:45:35;18.80;41.30
61398;DHT22;47267;48.130;-2.040;2023-03-01T14:48:02;18.80;41.30
61398;DHT22;47267;48.130;-2.040;2023-03-01T14:50:31;18.80;41.30
61398;DHT22;47267;48.130;-2.040;2023-03-01T14:53:01;18.90;41.40
61398;DHT22;47267;48.130;-2.040;2023-03-01T14:55:40;18.90;41.40
61398;DHT22;47267;48.130;-2.040;2023-03-01T14:58:13;18.90;41.40
61398;DHT22;47267;48.130;-2.040;2023-03-01T15:00:50;19.00;41.50
61398;DHT22;47267;48.130;-2.040;2023-03-01T15:03:34;19.00;41.40
61398;DHT22;47267;48.130;-2.040;2023-03-01T15:06:04;19.00;41.40
61398;DHT22;47267;48.130;-2.040;2023-03-01T15:08:31;19.00;41.40
61398;DHT22;47267;48.130;-2.040;2023-03-01T15:11:50;19.00;41.40
61398;DHT22;47267;48.130;-2.040;2023-03-01T15:13:51;19.10;41.40
61398;DHT22;47267;48.130;-2.040;2023-03-01T15:16:31;19.10;41.50
61398;DHT22;47267;48.130;-2.040;2023-03-01T15:19:06;19.10;41.40
61398;DHT22;47267;48.130;-2.040;2023-03-01T15:21:34;19.10;41.40
61398;DHT22;47267;48.130;-2.040;2023-03-01T15:26:40;19.10;41.40
61398;DHT22;47267;48.130;-2.040;2023-03-01T15:29:15;19.20;41.40
61398;DHT22;47267;48.130;-2.040;2023-03-01T15:31:42;19.20;41.40
61398;DHT22;47267;48.130;-2.040;2023-03-01T15:34:29;19.20;41.50
61398;DHT22;47267;48.130;-2.040;2023-03-01T15:36:57;19.20;41.40
61398;DHT22;47267;48.130;-2.040;2023-03-01T15:47:51;19.30;41.50
61398;DHT22;47267;48.130;-2.040;2023-03-01T15:50:22;19.40;41.50
61398;DHT22;47267;48.130;-2.040;2023-03-01T15:52:48;19.30;41.40
61398;DHT22;47267;48.130;-2.040;2023-03-01T15:55:23;19.40;41.40
61398;DHT22;47267;48.130;-2.040;2023-03-01T15:57:50;19.40;41.50
61398;DHT22;47267;48.130;-2.040;2023-03-01T16:00:28;19.40;41.40
61398;DHT22;47267;48.130;-2.040;2023-03-01T16:02:55;19.40;41.40
61398;DHT22;47267;48.130;-2.040;2023-03-01T16:05:26;19.50;41.50
61398;DHT22;47267;48.130;-2.040;2023-03-01T16:07:52;19.50;41.50
61398;DHT22;47267;48.130;-2.040;2023-03-01T16:10:18;19.50;41.50
61398;DHT22;47267;48.130;-2.040;2023-03-01T16:12:44;19.50;41.50
61398;DHT22;47267;48.130;-2.040;2023-03-01T16:15:25;19.50;41.40
61398;DHT22;47267;48.130;-2.040;2023-03-01T16:17:51;19.50;41.40
61398;DHT22;47267;48.130;-2.040;2023-03-01T16:20:18;19.60;41.40
61398;DHT22;47267;48.130;-2.040;2023-03-01T16:22:45;19.60;41.40
61398;DHT22;47267;48.130;-2.040;2023-03-01T16:25:12;19.60;41.40
61398;DHT22;47267;48.130;-2.040;2023-03-01T16:27:38;19.60;41.40
61398;DHT22;47267;48.130;-2.040;2023-03-01T16:30:07;19.60;41.40
61398;DHT22;47267;48.130;-2.040;2023-03-01T16:32:43;19.60;41.40
61398;DHT22;47267;48.130;-2.040;2023-03-01T16:35:12;19.60;41.40
61398;DHT22;47267;48.130;-2.040;2023-03-01T16:37:39;19.60;41.40
61398;DHT22;47267;48.130;-2.040;2023-03-01T16:40:06;19.60;41.40
61398;DHT22;47267;48.130;-2.040;2023-03-01T16:42:37;19.70;41.50
61398;DHT22;47267;48.130;-2.040;2023-03-01T16:45:03;19.70;41.40
61398;DHT22;47267;48.130;-2.040;2023-03-01T16:47:29;19.70;41.40
61398;DHT22;47267;48.130;-2.040;2023-03-01T16:49:55;19.70;41.40
61398;DHT22;47267;48.130;-2.040;2023-03-01T16:52:22;19.70;41.40
61398;DHT22;47267;48.130;-2.040;2023-03-01T16:54:48;19.70;41.40
61398;DHT22;47267;48.130;-2.040;2023-03-01T16:57:14;19.70;42.00
61398;DHT22;47267;48.130;-2.040;2023-03-01T16:59:40;19.70;41.30
61398;DHT22;47267;48.130;-2.040;2023-03-01T17:02:08;19.70;41.30
61398;DHT22;47267;48.130;-2.040;2023-03-01T17:04:36;19.70;41.30
61398;DHT22;47267;48.130;-2.040;2023-03-01T17:07:01;19.70;41.30
61398;DHT22;47267;48.130;-2.040;2023-03-01T17:09:27;19.70;41.30
61398;DHT22;47267;48.130;-2.040;2023-03-01T17:11:53;19.70;41.30
61398;DHT22;47267;48.130;-2.040;2023-03-01T17:14:19;19.70;41.30
61398;DHT22;47267;48.130;-2.040;2023-03-01T17:16:45;19.70;41.90
61398;DHT22;47267;48.130;-2.040;2023-03-01T17:19:12;19.80;41.30
61398;DHT22;47267;48.130;-2.040;2023-03-01T17:21:43;19.70;41.20
61398;DHT22;47267;48.130;-2.040;2023-03-01T17:24:09;19.70;41.20
61398;DHT22;47267;48.130;-2.040;2023-03-01T17:26:35;19.70;41.30
61398;DHT22;47267;48.130;-2.040;2023-03-01T17:29:01;19.70;41.30
61398;DHT22;47267;48.130;-2.040;2023-03-01T17:31:28;19.70;41.20
61398;DHT22;47267;48.130;-2.040;2023-03-01T17:33:54;19.70;41.20
61398;DHT22;47267;48.130;-2.040;2023-03-01T17:36:22;19.70;41.20
61398;DHT22;47267;48.130;-2.040;2023-03-01T17:38:48;19.70;41.30
61398;DHT22;47267;48.130;-2.040;2023-03-01T17:41:17;19.70;41.20
61398;DHT22;47267;48.130;-2.040;2023-03-01T17:43:44;19.70;41.30
61398;DHT22;47267;48.130;-2.040;2023-03-01T17:46:10;19.70;41.20